General Abelardo L. Rodríguez International Airport
MMTJ : now visible

Airfield :











YOU CAN JOIN US ON...

 
LOGIN :

Register | Disclaimer

   EN    FR    IT 

 









Legend :    VFR   Marginal VFR   IFR   Intensive IFR   Very Intensive IFR
Visi :
Ceiling :
>= 8 km
>= 3000ft
5 to 8 km
1000 to 3000 ft
1500m to 5 km
500 to 1000 ft
800 to 1500m
200 to 500 ft
< 800m
< 200 ft
Symbols :   Thunderstorms  Fog  Heavy snow  Heavy precipitations  Wind > 20 kt






- Airport Elevation : 489 ft
- IATA code : TIJ


MMTJ - General Abelardo L. Rodríguez International

CURRENT METAR :
  • 041941Z 31008KT 7SM SKC 26/17 A3001 RMK DSNT CB NE HZY

EXPIRED METARs :
  • 041840Z 36009KT 6SM SKC 25/17 A3001 RMK DSNT CI E HZY
  • 041743Z 27005KT 5SM SKC 24/17 A3002 RMK SLP/// 57002 913 HZY

TAF TAF MMTJ
Valid from the 04 at 18:00 until the 06 at 00:00 UTC


041709Z 0418/0524 25010KT 6SM HZ SKC TX27/0422Z TN17/0512Z
FM050300 26005KT 6SM HZ SKC
FM050800 00000KT 3SM BR BKN005 OVC010
TEMPO 0511/0515 1/2SM FG VV003
FM051600 00000KT 3SM BR BKN010
FM051700 33005KT 4SM HZ SCT015
FM051800 33010KT 6SM HZ SKC
MMFR FIR / North America



MET'MAP, your aeronautical weather chart ! - Copyright ORBIFLY December 2007 - Disclaimer

ORBIFLY MET'MAP TEAM :

Programming & Development : Alexandra Zaïnal
Concept & original design : Baudouin d'Aumeries
Assistance for programming : Marc-Olivier Méhu
Technical & hardware support : Manuel Goepfert

Contact : metmap@orbifly.com




SOURCES & CREDITS :

   NOAA       Earth
Advisory